Terminal Aerodrome Forecast
Issued by NWS Flagstaff, AZ

Home | Current Version | Previous Version | Text Only | Print | Product List | Glossary On
Versions: 1 2 3 4 5 6 7 8 9 10 11
000
FTUS45 KFGZ 182326
TAFINW
TAF
KINW 182326Z 1900/1924 23025G35KT P6SM FEW050 SCT250
     FM190700 20026G38KT P6SM BKN045
     FM191500 20035G52KT P6SM VCSH BKN035=

USA.gov is the U.S. government's official web portal to all federal, state and local government web resources and services.